Impacts TAF Board
For situational awareness. Not to be used for flight planning purposes.
IDs:

KMOB - Mobile Rgnl, AL, US

Issued at 0806 UTC 30 Oct 2020
Updated at 1044 UTC 30 Oct 2020
Potential Impact None Slight Moderate High
Time<<30/23Z 31/00Z 31/01Z 31/02Z 31/03Z 31/04Z 31/05Z 31/06Z 31/07Z 31/08Z 31/09Z 31/10Z 31/11Z>>
Type PRVL PRVL PRVL PRVL PRVL PRVL PRVL
VIS >6 >6 >6 >6 >6 >6 >6
CIG -- -- -- -- -- -- --
Cover SCT SCT SCT SCT SCT SCT SKC
FltCat VFR VFR VFR VFR VFR VFR VFR
WX -- -- -- -- -- -- --
WDir 360 360 360 360 360 360 30
WSpd 9 9 9 9 9 9 5
WGst -- -- -- -- -- -- --
R14/32
XWnd 5 5 5 5 5 5 5 0 0 0 0 0 0
HWnd -7 -7 -7 -7 -7 -7 -2 0 0 0 0 0 0
R18/36
XWnd -0 -0 -0 -0 -0 -0 3 0 0 0 0 0 0
HWnd -9 -9 -9 -9 -9 -9 -4 0 0 0 0 0 0
Raw TAF
KMOB 300806Z 3008/3106 34012KT P6SM OVC018
  FM301700 36009KT P6SM SCT017
  FM310500 03005KT P6SM SKC


METAR Board
Radar Display
Forecast Discussion
For situational awareness. Not to be used for flight planning purposes.